Walhalla, North Dakota
Current Conditions -  °F | °C
As of 5:55 AM on Thursday 23 Oct 2014 (Local Time) from K2C8 Reporting Station
Clear Clear  
Wind Chill: 50°   Ceiling: Unl
Heat Index: 50°   Visibility: 10mi
Dew Point: 45°   Wind: 8mph
Humidity: 82%   Direction: 250°WSW
Pressure: 29.8"   Gusts: NA
Location:  48.92°N, 97.92°W
Report Text: K2C8 231055Z AUTO 25007KT 10SM CLR 10/07 A2980 RMK AO2
Loading
Personal Weather Stations






























Interactive Weather Map
Tropical Storm Tracking
New forecast layout! Learn more

10-Day Weather Forecast

Advertisements
Track Severe Weather on mobile